createdAt,value
2022-08-03T00:01:36.992Z,3.05
2022-08-03T00:04:41.015Z,2.83
2022-08-03T00:07:43.585Z,2.90
2022-08-03T00:10:46.969Z,2.90
2022-08-03T00:13:50.593Z,2.90
2022-08-03T00:16:53.173Z,3.08
2022-08-03T00:19:57.064Z,3.03
2022-08-03T00:22:59.674Z,2.75
2022-08-03T00:26:02.501Z,3.20
2022-08-03T00:29:05.114Z,2.85
2022-08-03T00:32:07.779Z,2.77
2022-08-03T00:35:29.975Z,2.90
2022-08-03T00:38:37.460Z,3.00
2022-08-03T00:41:40.069Z,3.05
2022-08-03T00:44:43.191Z,2.88
2022-08-03T00:47:46.021Z,2.90
2022-08-03T00:50:49.941Z,3.20
2022-08-03T00:53:56.599Z,3.08
2022-08-03T00:56:59.528Z,2.95
2022-08-03T01:00:03.110Z,3.30
2022-08-03T01:03:06.654Z,3.03
2022-08-03T01:06:16.670Z,3.17
2022-08-03T01:09:31.937Z,3.40
2022-08-03T01:12:39.204Z,3.10
2022-08-03T01:15:47.308Z,3.40
2022-08-03T01:18:56.372Z,3.40
2022-08-03T01:22:12.039Z,3.40
2022-08-03T01:25:24.419Z,3.30
2022-08-03T01:28:40.000Z,3.20
2022-08-03T01:32:58.291Z,3.50
2022-08-03T01:35:23.167Z,3.37
2022-08-03T01:38:29.732Z,3.57
2022-08-03T01:41:35.242Z,3.57
2022-08-03T01:44:41.462Z,3.23
2022-08-03T01:47:46.663Z,3.67
2022-08-03T01:50:50.573Z,3.30
2022-08-03T01:53:55.356Z,3.13
2022-08-03T01:57:00.004Z,3.80
2022-08-03T02:00:03.651Z,3.43
2022-08-03T02:03:09.279Z,3.50
2022-08-03T02:06:58.907Z,3.90
2022-08-03T02:09:39.573Z,4.03
2022-08-03T02:12:46.101Z,3.50
2022-08-03T02:15:50.305Z,3.47
2022-08-03T02:18:56.092Z,3.50
2022-08-03T02:22:01.112Z,3.67
2022-08-03T02:25:05.022Z,3.53
2022-08-03T02:28:11.619Z,3.63
2022-08-03T02:31:19.178Z,3.57
2022-08-03T02:34:26.655Z,3.70
2022-08-03T02:37:35.042Z,3.50
2022-08-03T02:40:39.620Z,3.73
2022-08-03T02:44:06.284Z,3.40
2022-08-03T02:47:12.478Z,3.70
2022-08-03T02:50:18.163Z,3.37
2022-08-03T02:53:22.325Z,3.47
2022-08-03T02:56:26.582Z,3.67
2022-08-03T02:59:31.257Z,3.83
2022-08-03T03:02:34.904Z,3.73
2022-08-03T03:05:55.855Z,3.80
2022-08-03T03:09:00.785Z,4.00
2022-08-03T03:12:04.332Z,3.47
2022-08-03T03:15:07.712Z,3.77
2022-08-03T03:18:11.560Z,3.73
2022-08-03T03:21:18.909Z,3.67
2022-08-03T03:24:22.393Z,3.70
2022-08-03T03:27:25.409Z,3.60
2022-08-03T03:30:30.186Z,3.70
2022-08-03T03:33:34.384Z,4.03
2022-08-03T03:36:38.445Z,3.73
2022-08-03T03:39:41.112Z,3.87
2022-08-03T03:42:43.813Z,4.13
2022-08-03T03:45:46.829Z,4.00
2022-08-03T03:48:49.594Z,4.30
2022-08-03T03:51:55.260Z,4.50
2022-08-03T03:55:01.071Z,4.27
2022-08-03T03:58:04.859Z,5.33
2022-08-03T04:01:08.790Z,5.40
2022-08-03T04:04:28.962Z,5.37
2022-08-03T04:08:03.487Z,5.00
2022-08-03T04:11:13.626Z,4.90
2022-08-03T04:14:20.008Z,5.00
2022-08-03T04:17:28.137Z,4.97
2022-08-03T04:20:33.383Z,4.40
2022-08-03T04:23:56.387Z,4.10
2022-08-03T04:27:01.946Z,4.20
2022-08-03T04:30:06.744Z,4.63
2022-08-03T04:33:09.660Z,4.33
2022-08-03T04:36:18.298Z,4.53
2022-08-03T04:39:26.475Z,4.53
2022-08-03T04:42:30.484Z,4.50
2022-08-03T04:45:35.189Z,4.47
2022-08-03T04:48:39.732Z,5.40
2022-08-03T04:51:44.797Z,4.70
2022-08-03T04:54:50.948Z,4.50
2022-08-03T04:57:53.848Z,4.37
2022-08-03T05:00:56.417Z,4.67
2022-08-03T05:03:59.059Z,4.63
2022-08-03T05:07:11.691Z,4.37
2022-08-03T05:10:17.672Z,4.63
2022-08-03T05:13:20.289Z,4.10
2022-08-03T05:16:22.883Z,4.50
2022-08-03T05:19:25.472Z,5.00
2022-08-03T05:22:28.065Z,4.77
2022-08-03T05:25:31.997Z,5.00
2022-08-03T05:28:34.585Z,5.67
2022-08-03T05:31:37.202Z,4.83
2022-08-03T05:34:39.874Z,4.60
2022-08-03T05:37:42.454Z,4.87
2022-08-03T05:41:21.431Z,4.63
2022-08-03T05:44:22.149Z,4.60
2022-08-03T05:47:24.842Z,4.63
2022-08-03T05:50:27.409Z,4.40
2022-08-03T05:53:30.018Z,4.13
2022-08-03T05:56:33.944Z,3.87
2022-08-03T05:59:39.087Z,4.10
2022-08-03T06:02:41.685Z,3.90
2022-08-03T06:05:55.505Z,3.90
2022-08-03T06:09:03.060Z,3.80
2022-08-03T06:12:11.139Z,3.40
2022-08-03T06:15:16.763Z,3.55
2022-08-03T06:18:19.942Z,3.63
2022-08-03T06:21:22.676Z,4.13
2022-08-03T06:24:25.438Z,3.58
2022-08-03T06:27:36.636Z,3.58
2022-08-03T06:30:40.311Z,3.30
2022-08-03T06:34:31.327Z,3.70
2022-08-03T06:37:05.844Z,3.38
2022-08-03T06:40:09.451Z,3.10
2022-08-03T06:43:17.746Z,3.65
2022-08-03T06:46:20.390Z,3.30
2022-08-03T06:49:23.091Z,3.28
2022-08-03T06:52:37.650Z,2.80
2022-08-03T06:55:42.530Z,3.67
2022-08-03T06:58:47.327Z,3.03
2022-08-03T07:01:50.130Z,3.25
2022-08-03T07:04:52.744Z,2.92
2022-08-03T07:07:56.738Z,3.40
2022-08-03T07:10:59.317Z,3.33
2022-08-03T07:14:04.254Z,3.65
2022-08-03T07:17:11.551Z,3.53
2022-08-03T07:20:15.236Z,3.30
2022-08-03T07:23:19.269Z,3.13
2022-08-03T07:26:22.112Z,3.00
2022-08-03T07:29:26.162Z,2.80
2022-08-03T07:32:31.270Z,3.05
2022-08-03T07:35:33.980Z,3.03
2022-08-03T07:38:37.287Z,3.20
2022-08-03T07:41:39.905Z,3.00
2022-08-03T07:44:45.814Z,3.30
2022-08-03T07:47:53.222Z,3.22
2022-08-03T07:50:56.530Z,2.83
2022-08-03T07:54:00.748Z,2.88
2022-08-03T07:57:03.367Z,2.80
2022-08-03T08:00:13.639Z,2.75
2022-08-03T08:03:16.372Z,2.90
2022-08-03T08:06:19.315Z,2.90
2022-08-03T08:09:21.930Z,2.70
2022-08-03T08:12:24.691Z,2.30
2022-08-03T08:15:28.987Z,2.45
2022-08-03T08:18:32.032Z,2.60
2022-08-03T08:21:53.128Z,2.30
2022-08-03T08:24:57.252Z,2.00
2022-08-03T08:28:22.235Z,2.10
2022-08-03T08:31:26.465Z,2.20
2022-08-03T08:34:29.085Z,2.13
2022-08-03T08:37:35.085Z,2.08
2022-08-03T08:40:37.694Z,2.08
2022-08-03T08:43:40.326Z,2.10
2022-08-03T08:46:44.978Z,2.50
2022-08-03T08:50:08.943Z,2.03
2022-08-03T08:53:18.171Z,1.98
2022-08-03T08:56:25.380Z,1.80
2022-08-03T08:59:47.666Z,1.95
2022-08-03T09:02:52.322Z,1.90
2022-08-03T09:05:56.408Z,1.90
2022-08-03T09:08:59.483Z,1.90
2022-08-03T09:12:34.983Z,2.00
2022-08-03T09:15:27.255Z,1.83
2022-08-03T09:18:32.536Z,1.70
2022-08-03T09:21:35.833Z,1.83
2022-08-03T09:24:43.484Z,1.60
2022-08-03T09:27:47.127Z,1.50
2022-08-03T09:30:59.923Z,1.98
2022-08-03T09:34:06.782Z,1.92
2022-08-03T09:37:14.990Z,1.77
2022-08-03T09:40:35.520Z,1.65
2022-08-03T09:43:47.504Z,1.88
2022-08-03T09:46:51.334Z,1.92
2022-08-03T09:50:01.921Z,1.65
2022-08-03T09:53:04.607Z,1.85
2022-08-03T09:56:35.715Z,2.10
2022-08-03T09:59:31.760Z,1.63
2022-08-03T10:02:34.453Z,1.80
2022-08-03T10:05:44.494Z,1.52
2022-08-03T10:08:47.116Z,2.00
2022-08-03T10:11:50.118Z,1.88
2022-08-03T10:14:54.135Z,2.03
2022-08-03T10:17:56.729Z,1.90
2022-08-03T10:21:05.784Z,1.67
2022-08-03T10:24:11.087Z,1.90
2022-08-03T10:27:15.968Z,1.65
2022-08-03T10:30:18.639Z,1.95
2022-08-03T10:33:50.668Z,1.67
2022-08-03T10:36:50.094Z,1.77
2022-08-03T10:39:56.431Z,1.77
2022-08-03T10:43:08.918Z,1.70
2022-08-03T10:46:11.524Z,1.60
2022-08-03T10:49:15.750Z,1.98
2022-08-03T10:52:31.878Z,2.20
2022-08-03T10:55:56.910Z,1.60
2022-08-03T10:59:03.826Z,2.03
2022-08-03T11:02:08.300Z,1.80
2022-08-03T11:05:26.573Z,1.50
2022-08-03T11:08:34.641Z,1.95
2022-08-03T11:11:37.573Z,2.10
2022-08-03T11:14:49.159Z,1.80
2022-08-03T11:18:11.209Z,1.73
2022-08-03T11:21:14.624Z,1.73
2022-08-03T11:24:54.172Z,1.63
2022-08-03T11:28:28.922Z,1.85
2022-08-03T11:31:50.154Z,1.90
2022-08-03T11:35:08.871Z,1.75
2022-08-03T11:38:12.911Z,1.63
2022-08-03T11:41:43.339Z,1.88
2022-08-03T11:44:50.521Z,1.95
2022-08-03T11:47:55.829Z,1.63
2022-08-03T11:50:58.449Z,1.77
2022-08-03T11:54:03.029Z,1.70
2022-08-03T11:57:05.947Z,1.70
2022-08-03T12:00:37.241Z,1.70
2022-08-03T12:03:39.964Z,1.70
2022-08-03T12:06:55.445Z,1.60
2022-08-03T12:10:08.691Z,1.55
2022-08-03T12:14:45.213Z,1.50
2022-08-03T12:16:35.620Z,1.55
2022-08-03T12:19:43.440Z,1.70
2022-08-03T12:22:46.139Z,1.58
2022-08-03T12:25:49.519Z,1.50
2022-08-03T12:28:52.930Z,1.75
2022-08-03T12:31:57.682Z,1.80
2022-08-03T12:35:04.306Z,1.50
2022-08-03T12:38:07.229Z,1.80
2022-08-03T12:41:13.498Z,1.60
2022-08-03T12:44:16.715Z,1.73
2022-08-03T12:47:20.857Z,2.15
2022-08-03T12:50:29.229Z,1.50
2022-08-03T12:53:31.853Z,1.50
2022-08-03T12:56:35.425Z,1.90
2022-08-03T12:59:42.419Z,1.60
2022-08-03T13:03:38.205Z,1.70
2022-08-03T13:06:26.733Z,1.80
2022-08-03T13:09:29.979Z,1.70
2022-08-03T13:12:32.566Z,1.60
2022-08-03T13:15:38.729Z,1.67
2022-08-03T13:18:53.252Z,1.73
2022-08-03T13:22:04.106Z,1.55
2022-08-03T13:25:08.437Z,1.90
2022-08-03T13:28:14.140Z,1.90
2022-08-03T13:31:17.226Z,1.85
2022-08-03T13:34:23.868Z,1.40
2022-08-03T13:37:27.559Z,1.50
2022-08-03T13:40:35.576Z,1.55
2022-08-03T13:43:44.162Z,1.60
2022-08-03T13:46:46.963Z,1.73
2022-08-03T13:50:00.002Z,1.50
2022-08-03T13:53:04.661Z,1.50
2022-08-03T13:56:07.274Z,1.67
2022-08-03T13:59:10.995Z,1.63
2022-08-03T14:02:13.649Z,1.60
2022-08-03T14:05:17.602Z,1.88
2022-08-03T14:08:20.132Z,1.70
2022-08-03T14:11:22.761Z,1.80
2022-08-03T14:14:25.343Z,1.98
2022-08-03T14:17:42.414Z,1.70
2022-08-03T14:20:56.168Z,1.60
2022-08-03T14:23:59.925Z,1.65
2022-08-03T14:27:09.052Z,1.58
2022-08-03T14:30:13.214Z,1.85
2022-08-03T14:33:16.418Z,1.60
2022-08-03T14:36:20.400Z,1.80
2022-08-03T14:39:23.084Z,1.60
2022-08-03T14:42:25.746Z,1.60
2022-08-03T14:45:28.367Z,1.70
2022-08-03T14:50:31.051Z,1.77
2022-08-03T14:51:54.982Z,1.98
2022-08-03T14:54:57.916Z,1.50
2022-08-03T14:58:05.400Z,2.13
2022-08-03T15:02:03.167Z,1.50
2022-08-03T15:04:44.770Z,1.92
2022-08-03T15:07:48.658Z,1.85
2022-08-03T15:10:51.622Z,1.83
2022-08-03T15:13:54.247Z,1.65
2022-08-03T15:16:56.831Z,1.70
2022-08-03T15:20:18.974Z,1.88
2022-08-03T15:23:23.396Z,1.83
2022-08-03T15:26:32.838Z,1.60
2022-08-03T15:30:07.398Z,2.35
2022-08-03T15:32:59.226Z,1.80
2022-08-03T15:36:01.785Z,1.70
2022-08-03T15:39:06.121Z,3.15
2022-08-03T15:42:08.880Z,2.83
2022-08-03T15:45:12.752Z,2.33
2022-08-03T15:48:15.571Z,1.80
2022-08-03T15:51:18.171Z,1.90
2022-08-03T15:54:22.100Z,2.50
2022-08-03T15:57:24.704Z,2.72
2022-08-03T16:00:33.303Z,3.95
2022-08-03T16:03:36.576Z,13.95
2022-08-03T16:06:39.410Z,4.65
2022-08-03T16:09:44.012Z,28.85
2022-08-03T16:12:47.590Z,11.77
2022-08-03T16:15:50.214Z,5.30
2022-08-03T16:18:53.046Z,33.95
2022-08-03T16:21:55.604Z,42.08
2022-08-03T16:25:02.249Z,16.40
2022-08-03T16:28:08.279Z,2.90
2022-08-03T16:31:15.302Z,16.13
2022-08-03T16:34:19.095Z,6.50
2022-08-03T16:37:38.103Z,3.42
2022-08-03T16:40:43.448Z,16.58
2022-08-03T16:43:46.050Z,38.88
2022-08-03T16:46:48.651Z,22.35
2022-08-03T16:49:53.820Z,16.65
2022-08-03T16:52:59.010Z,10.23
2022-08-03T16:56:06.711Z,5.95
2022-08-03T16:59:12.677Z,3.08
2022-08-03T17:02:21.878Z,22.40
2022-08-03T17:05:32.697Z,4.72
2022-08-03T17:08:55.174Z,5.38
2022-08-03T17:11:59.545Z,14.60
2022-08-03T17:15:02.949Z,44.53
2022-08-03T17:18:09.785Z,33.30
2022-08-03T17:21:12.824Z,20.25
2022-08-03T17:24:26.340Z,13.27
2022-08-03T17:28:48.358Z,3.78
2022-08-03T17:31:23.366Z,3.60
2022-08-03T17:34:35.051Z,22.85
2022-08-03T17:37:58.538Z,7.57
2022-08-03T17:41:11.033Z,35.10
2022-08-03T17:44:33.140Z,39.15
2022-08-03T17:47:41.257Z,30.75
2022-08-03T17:50:54.201Z,22.88
2022-08-03T17:54:05.321Z,33.40
2022-08-03T17:57:30.197Z,11.50
2022-08-03T18:01:59.587Z,11.27
2022-08-03T18:04:43.786Z,7.63
2022-08-03T18:08:02.641Z,6.57
2022-08-03T18:11:14.504Z,7.97
2022-08-03T18:14:39.119Z,5.05
2022-08-03T18:17:55.479Z,7.07
2022-08-03T18:21:09.409Z,5.25
2022-08-03T18:24:20.604Z,3.80
2022-08-03T18:27:42.848Z,3.00
2022-08-03T18:30:53.143Z,3.45
2022-08-03T18:34:32.133Z,3.08
2022-08-03T18:37:25.344Z,2.53
2022-08-03T18:40:28.432Z,1.95
2022-08-03T18:43:47.609Z,2.10
2022-08-03T18:47:15.811Z,2.65
2022-08-03T18:50:29.296Z,3.65
2022-08-03T18:54:03.123Z,5.13
2022-08-03T18:57:06.559Z,3.20
2022-08-03T19:03:42.911Z,2.00
2022-08-03T19:06:49.749Z,2.55
2022-08-03T19:10:03.784Z,2.20
2022-08-03T19:13:14.096Z,2.53
2022-08-03T19:16:22.642Z,2.15
2022-08-03T19:19:43.647Z,2.30
2022-08-03T19:22:49.223Z,2.13
2022-08-03T19:25:52.685Z,2.45
2022-08-03T19:28:58.022Z,3.08
2022-08-03T19:32:02.742Z,2.90
2022-08-03T19:35:13.341Z,3.13
2022-08-03T19:38:28.755Z,2.88
2022-08-03T19:41:42.075Z,2.65
2022-08-03T19:44:50.829Z,2.50
2022-08-03T19:48:09.470Z,2.40
2022-08-03T19:51:12.787Z,2.05
2022-08-03T19:54:17.122Z,2.00
2022-08-03T19:57:34.498Z,2.20
2022-08-03T20:00:39.576Z,2.15
2022-08-03T20:03:52.941Z,2.15
2022-08-03T20:06:58.563Z,2.50
2022-08-03T20:10:05.193Z,2.42
2022-08-03T20:13:08.405Z,2.53
2022-08-03T20:16:11.192Z,2.58
2022-08-03T20:19:14.463Z,2.47
2022-08-03T20:22:17.413Z,2.10
2022-08-03T20:25:38.468Z,2.17
2022-08-03T20:28:50.060Z,2.15
2022-08-03T20:31:53.388Z,2.03
2022-08-03T20:34:58.796Z,2.10
2022-08-03T20:38:01.365Z,2.55
2022-08-03T20:41:06.215Z,2.40
2022-08-03T20:44:08.833Z,2.35
2022-08-03T20:47:11.930Z,2.45
2022-08-03T20:50:26.989Z,2.10
2022-08-03T20:53:57.304Z,2.40
2022-08-03T20:56:54.243Z,2.20
2022-08-03T20:59:56.817Z,2.22
2022-08-03T21:02:59.818Z,2.60
2022-08-03T21:06:07.082Z,2.40
2022-08-03T21:09:18.180Z,2.72
2022-08-03T21:12:29.635Z,2.20
2022-08-03T21:13:09.723Z,2.55
2022-08-03T21:16:02.466Z,2.20
2022-08-03T21:19:00.754Z,2.88
2022-08-03T21:22:05.350Z,2.50
2022-08-03T21:25:09.800Z,2.78
2022-08-03T21:28:14.202Z,2.50
2022-08-03T21:31:27.606Z,2.67
2022-08-03T21:34:31.170Z,2.45
2022-08-03T21:37:34.228Z,2.40
2022-08-03T21:40:37.421Z,3.15
2022-08-03T21:43:41.415Z,2.72
2022-08-03T21:46:46.325Z,2.97
2022-08-03T21:50:07.872Z,2.40
2022-08-03T21:53:13.092Z,2.55
2022-08-03T21:56:20.914Z,2.90
2022-08-03T21:59:26.689Z,3.00
2022-08-03T22:02:32.355Z,2.97
2022-08-03T22:05:44.047Z,2.88
2022-08-03T22:08:47.308Z,2.55
2022-08-03T22:11:53.976Z,2.60
2022-08-03T22:15:00.410Z,2.33
2022-08-03T22:18:05.206Z,2.90
2022-08-03T22:21:11.785Z,4.75
2022-08-03T22:24:16.808Z,2.63
2022-08-03T22:27:32.479Z,2.85
2022-08-03T22:30:37.036Z,2.53
2022-08-03T22:33:40.630Z,2.95
2022-08-03T22:36:43.712Z,2.40
2022-08-03T22:39:46.839Z,3.17
2022-08-03T22:42:52.133Z,2.78
2022-08-03T22:46:11.223Z,2.53
2022-08-03T22:49:16.186Z,2.42
2022-08-03T22:52:19.270Z,2.08
2022-08-03T22:55:24.841Z,3.00
2022-08-03T22:58:27.765Z,2.50
2022-08-03T23:01:38.006Z,2.60
2022-08-03T23:04:42.546Z,2.33
2022-08-03T23:07:46.470Z,2.75
2022-08-03T23:10:49.870Z,2.90
2022-08-03T23:13:54.778Z,2.42
2022-08-03T23:17:03.846Z,2.45
2022-08-03T23:20:09.108Z,2.50
2022-08-03T23:23:12.105Z,2.70
2022-08-03T23:26:17.123Z,2.50
2022-08-03T23:29:21.364Z,2.25
2022-08-03T23:32:26.690Z,2.50
2022-08-03T23:36:17.300Z,2.50
2022-08-03T23:39:10.141Z,2.50
2022-08-03T23:42:14.401Z,2.30
2022-08-03T23:45:19.343Z,2.53
2022-08-03T23:48:23.436Z,2.30
2022-08-03T23:51:37.690Z,2.50
2022-08-03T23:54:52.287Z,2.83
2022-08-03T23:58:04.589Z,2.40
